Time;durP1;ratioP1;P1;durP2;ratioP2;P2;SDS_P1;SDS_P2;PMS_P1;PMS_P2;Temp;Humidity;BMP_temperature;BMP_pressure;BME280_temperature;BME280_humidity;BME280_pressure;Samples;Min_cycle;Max_cycle;Signal;HPM_P1;HPM_P2
2021/09/19 00:01:42;;;;;;;;;;;;;;;18.72;45.52;101509.94;5004564;28;97752;-79
2021/09/19 00:04:08;;;;;;;;;;;;;;;18.21;46.87;101509.22;5016882;28;96696;-79
2021/09/19 00:06:34;;;;;;;;;;;;;;;18.41;46.87;101512.59;5014959;28;97224;-79
2021/09/19 00:09:00;;;;;;;;;;;;;;;18.30;48.15;101507.84;5016233;28;99507;-78
2021/09/19 00:11:27;;;;;;;;;;;;;;;18.30;47.47;101508.72;5026882;28;99443;-78
2021/09/19 00:13:53;;;;;;;;;;;;;;;18.42;47.36;101511.66;5029378;28;96776;-79
2021/09/19 00:16:21;;;;;;;;;;;;;;;18.10;48.78;101516.13;5024253;28;96952;-79
2021/09/19 00:18:47;;;;;;;;;;;;;;;18.51;47.92;101516.50;5015546;28;97743;-80
2021/09/19 00:21:13;;;;;;;;;;;;;;;18.55;47.16;101516.28;5015110;28;98944;-79
2021/09/19 00:23:40;;;;;;;;;;;;;;;18.40;47.31;101518.91;5014760;28;96783;-79
2021/09/19 00:26:06;;;;;;;;;;;;;;;18.68;46.83;101509.28;5015175;28;97105;-79
2021/09/19 00:28:32;;;;;;;;;;;;;;;18.55;47.22;101508.25;5015352;28;98130;-78
2021/09/19 00:30:59;;;;;;;;;;;;;;;18.66;46.71;101508.47;5015330;28;99507;-78
2021/09/19 00:33:26;;;;;;;;;;;;;;;18.21;47.15;101503.00;5015920;28;96875;-79
2021/09/19 00:35:53;;;;;;;;;;;;;;;17.48;48.72;101506.91;4998968;28;96803;-79
2021/09/19 00:38:19;;;;;;;;;;;;;;;17.90;49.23;101502.03;5014051;28;102074;-79
2021/09/19 00:40:45;;;;;;;;;;;;;;;17.81;48.09;101505.19;5014904;28;98094;-79
2021/09/19 00:43:13;;;;;;;;;;;;;;;17.68;48.55;101503.22;5014182;28;96927;-79
2021/09/19 00:45:39;;;;;;;;;;;;;;;18.17;47.60;101496.13;5015031;28;97056;-80
2021/09/19 00:48:05;;;;;;;;;;;;;;;18.32;47.30;101490.75;5009450;28;98964;-81
2021/09/19 00:50:33;;;;;;;;;;;;;;;18.16;46.92;101492.56;5014504;28;99645;-79
2021/09/19 00:52:59;;;;;;;;;;;;;;;18.59;46.83;101488.38;5014662;28;97165;-80
2021/09/19 00:55:26;;;;;;;;;;;;;;;18.94;46.19;101493.50;5015353;28;96977;-79
2021/09/19 00:57:54;;;;;;;;;;;;;;;18.61;46.35;101489.16;5014556;28;101565;-79
2021/09/19 01:00:21;;;;;;;;;;;;;;;17.96;47.29;101491.94;5015116;28;99189;-79
2021/09/19 01:02:54;;;;;;;;;;;;;;;17.78;47.88;101488.44;5018764;28;96815;-79
2021/09/19 01:05:33;;;;;;;;;;;;;;;17.70;48.24;101486.19;5031401;28;96739;-79
2021/09/19 01:08:00;;;;;;;;;;;;;;;17.82;48.07;101482.84;5019774;28;98824;-79
2021/09/19 01:10:27;;;;;;;;;;;;;;;17.48;49.04;101490.88;5013799;28;98845;-79
2021/09/19 01:12:54;;;;;;;;;;;;;;;17.85;48.62;101484.50;5014779;28;96926;-79
2021/09/19 01:15:21;;;;;;;;;;;;;;;18.29;48.34;101484.72;5014385;28;97216;-79
2021/09/19 01:17:47;;;;;;;;;;;;;;;18.40;47.85;101484.09;5015491;28;99145;-80
2021/09/19 01:20:14;;;;;;;;;;;;;;;18.45;47.49;101484.72;5018160;28;98923;-80
2021/09/19 01:22:42;;;;;;;;;;;;;;;18.19;47.61;101481.69;5017028;28;96866;-79
2021/09/19 01:25:11;;;;;;;;;;;;;;;18.62;47.16;101482.00;5017624;28;96849;-80
2021/09/19 01:27:38;;;;;;;;;;;;;;;18.92;46.32;101474.84;5016284;28;98991;-80
2021/09/19 01:30:04;;;;;;;;;;;;;;;18.27;47.32;101476.78;5017545;28;98113;-80
2021/09/19 01:32:31;;;;;;;;;;;;;;;18.18;47.44;101477.28;5012474;28;96744;-78
2021/09/19 01:34:57;;;;;;;;;;;;;;;17.86;48.79;101470.16;4995866;28;96833;-78
2021/09/19 01:37:23;;;;;;;;;;;;;;;17.72;48.25;101473.56;4996517;28;99654;-79
2021/09/19 01:39:51;;;;;;;;;;;;;;;18.17;47.37;101469.38;4996948;28;98112;-79
2021/09/19 01:42:19;;;;;;;;;;;;;;;17.81;48.02;101462.41;4995903;28;98493;-80
2021/09/19 01:44:45;;;;;;;;;;;;;;;18.03;47.43;101463.91;4997390;28;96788;-79
2021/09/19 01:47:12;;;;;;;;;;;;;;;18.09;47.00;101461.75;4996204;28;97688;-79
2021/09/19 01:49:44;;;;;;;;;;;;;;;18.28;47.57;101462.47;4976778;28;98894;-79
2021/09/19 01:52:10;;;;;;;;;;;;;;;18.12;47.52;101466.91;4987608;28;96942;-79
2021/09/19 01:54:36;;;;;;;;;;;;;;;18.14;47.55;101459.69;4996685;28;97255;-79
2021/09/19 01:57:03;;;;;;;;;;;;;;;17.76;47.22;101453.78;4995880;28;98809;-79
2021/09/19 01:59:31;;;;;;;;;;;;;;;18.09;46.59;101459.09;4995678;28;100645;-80
2021/09/19 02:01:57;;;;;;;;;;;;;;;18.02;46.28;101465.72;4997073;28;96644;-79
2021/09/19 02:04:24;;;;;;;;;;;;;;;18.36;45.66;101464.72;4995986;28;96833;-79
2021/09/19 02:06:50;;;;;;;;;;;;;;;18.22;46.48;101461.94;4987967;28;99359;-79
2021/09/19 02:09:16;;;;;;;;;;;;;;;18.13;46.17;101459.75;4989943;28;98634;-79
2021/09/19 02:11:42;;;;;;;;;;;;;;;18.03;46.66;101453.22;4996876;28;96703;-79
2021/09/19 02:14:09;;;;;;;;;;;;;;;17.96;47.09;101449.16;4996257;28;97178;-79
2021/09/19 02:16:36;;;;;;;;;;;;;;;18.19;46.76;101446.03;4994892;28;98914;-79
2021/09/19 02:19:03;;;;;;;;;;;;;;;17.51;48.25;101451.53;4996710;28;99156;-79
2021/09/19 02:21:29;;;;;;;;;;;;;;;17.42;49.08;101448.47;5010863;28;96665;-79
2021/09/19 02:23:55;;;;;;;;;;;;;;;17.66;48.78;101440.97;5000196;28;96748;-79
2021/09/19 02:26:21;;;;;;;;;;;;;;;17.93;48.45;101443.00;4994811;28;98121;-80
2021/09/19 02:28:48;;;;;;;;;;;;;;;18.15;48.41;101436.47;4996356;28;98761;-80
2021/09/19 02:31:14;;;;;;;;;;;;;;;17.99;47.88;101440.94;4996163;28;96880;-80
2021/09/19 02:33:42;;;;;;;;;;;;;;;17.98;48.07;101437.44;5008831;28;96846;-80
2021/09/19 02:36:08;;;;;;;;;;;;;;;18.16;47.65;101446.22;5015375;28;102548;-80
2021/09/19 02:38:34;;;;;;;;;;;;;;;18.17;47.74;101438.13;5016206;28;98054;-79
2021/09/19 02:41:00;;;;;;;;;;;;;;;18.00;48.29;101435.50;5014136;28;96864;-79
2021/09/19 02:43:27;;;;;;;;;;;;;;;17.98;48.09;101436.56;5016882;28;97082;-79
2021/09/19 02:45:53;;;;;;;;;;;;;;;18.25;47.26;101441.22;5014763;28;99212;-80
2021/09/19 02:48:19;;;;;;;;;;;;;;;18.07;47.09;101433.38;5019692;28;98043;-78
2021/09/19 02:50:47;;;;;;;;;;;;;;;17.87;47.81;101443.34;5015040;28;97148;-78
2021/09/19 02:53:14;;;;;;;;;;;;;;;17.90;47.81;101451.22;5015792;28;96753;-79
2021/09/19 02:55:40;;;;;;;;;;;;;;;18.38;46.55;101451.25;5014570;28;98975;-79
2021/09/19 02:58:06;;;;;;;;;;;;;;;18.34;46.42;101453.22;5016488;28;98943;-79
2021/09/19 03:00:33;;;;;;;;;;;;;;;18.40;46.59;101447.50;5015744;28;97031;-78
2021/09/19 03:02:59;;;;;;;;;;;;;;;18.25;47.08;101446.56;5016138;28;96875;-80
2021/09/19 03:05:25;;;;;;;;;;;;;;;18.02;47.77;101444.31;5014251;28;98960;-79
2021/09/19 03:07:55;;;;;;;;;;;;;;;18.01;47.90;101445.25;5014786;28;98822;-80
2021/09/19 03:10:21;;;;;;;;;;;;;;;18.00;48.10;101453.38;5015358;28;96659;-80
2021/09/19 03:12:48;;;;;;;;;;;;;;;18.16;48.30;101454.25;5015463;28;96783;-79
2021/09/19 03:15:14;;;;;;;;;;;;;;;18.06;48.04;101455.69;5014833;28;99470;-79
2021/09/19 03:17:41;;;;;;;;;;;;;;;18.12;48.65;101450.00;5017784;28;99309;-79
2021/09/19 03:20:09;;;;;;;;;;;;;;;18.17;48.22;101438.13;5022762;28;96719;-80
2021/09/19 03:22:36;;;;;;;;;;;;;;;17.45;50.42;101442.97;5020506;28;96823;-80
2021/09/19 03:25:04;;;;;;;;;;;;;;;17.68;49.87;101439.94;5015316;28;98942;-79
2021/09/19 03:27:30;;;;;;;;;;;;;;;17.74;50.14;101438.75;5015396;28;98112;-81
2021/09/19 03:29:56;;;;;;;;;;;;;;;17.53;50.38;101438.94;5014195;28;96898;-79
2021/09/19 03:32:23;;;;;;;;;;;;;;;17.59;50.16;101440.41;5015706;28;96811;-79
2021/09/19 03:34:49;;;;;;;;;;;;;;;17.85;49.87;101436.38;5015973;28;99213;-79
2021/09/19 03:37:15;;;;;;;;;;;;;;;17.73;50.38;101440.56;4999793;28;98438;-79
2021/09/19 03:39:42;;;;;;;;;;;;;;;18.14;49.54;101440.97;5002200;28;96713;-79
2021/09/19 03:42:09;;;;;;;;;;;;;;;18.07;50.57;101436.03;5034120;28;96653;-80
2021/09/19 03:44:36;;;;;;;;;;;;;;;18.19;49.79;101446.03;5034452;28;98028;-79
2021/09/19 03:47:02;;;;;;;;;;;;;;;17.96;49.83;101454.50;5044256;28;98008;-80
2021/09/19 03:49:30;;;;;;;;;;;;;;;18.12;49.90;101455.34;5059052;27;96059;-80
2021/09/19 03:51:57;;;;;;;;;;;;;;;17.90;50.03;101456.56;5043010;27;96685;-79
2021/09/19 03:54:23;;;;;;;;;;;;;;;18.25;49.61;101459.06;5038429;28;98093;-79
2021/09/19 03:56:49;;;;;;;;;;;;;;;18.09;50.18;101456.41;5036527;28;98282;-77
2021/09/19 03:59:17;;;;;;;;;;;;;;;18.24;49.02;101460.06;5038661;28;96197;-78
2021/09/19 04:01:43;;;;;;;;;;;;;;;18.22;49.06;101451.25;5040266;28;96150;-78
2021/09/19 04:04:09;;;;;;;;;;;;;;;18.18;49.86;101455.88;5034436;28;97822;-78
2021/09/19 04:06:35;;;;;;;;;;;;;;;18.03;49.75;101455.88;5038222;28;99215;-78
2021/09/19 04:09:02;;;;;;;;;;;;;;;18.10;50.31;101457.28;5039164;28;95902;-78
2021/09/19 04:11:28;;;;;;;;;;;;;;;18.29;49.62;101453.50;5038048;28;96408;-79
2021/09/19 04:13:54;;;;;;;;;;;;;;;18.36;49.73;101458.50;5038583;28;98087;-77
2021/09/19 04:16:22;;;;;;;;;;;;;;;18.42;49.22;101464.34;5018256;28;98232;-78
2021/09/19 04:18:48;;;;;;;;;;;;;;;17.68;50.22;101466.69;5015695;28;96846;-78
2021/09/19 04:21:15;;;;;;;;;;;;;;;17.81;50.56;101465.06;5016726;28;96809;-78
2021/09/19 04:23:41;;;;;;;;;;;;;;;17.97;49.94;101465.13;5014801;28;99438;-78
2021/09/19 04:26:08;;;;;;;;;;;;;;;17.89;49.91;101467.34;5013797;28;101925;-78
2021/09/19 04:28:34;;;;;;;;;;;;;;;18.07;49.14;101468.13;5013026;28;96760;-78
2021/09/19 04:31:00;;;;;;;;;;;;;;;17.55;50.30;101465.56;4994934;28;96760;-78
2021/09/19 04:33:28;;;;;;;;;;;;;;;17.88;49.16;101465.59;5004616;28;98880;-78
2021/09/19 04:35:54;;;;;;;;;;;;;;;18.18;49.19;101468.41;5014062;28;98829;-78
2021/09/19 04:38:20;;;;;;;;;;;;;;;18.52;48.33;101467.34;5014009;28;96736;-79
2021/09/19 04:40:47;;;;;;;;;;;;;;;18.49;48.11;101467.53;5014197;28;97124;-79
2021/09/19 04:43:13;;;;;;;;;;;;;;;18.54;48.27;101474.34;5013198;28;98405;-79
2021/09/19 04:45:41;;;;;;;;;;;;;;;18.00;49.72;101475.63;5012277;28;99177;-79
2021/09/19 04:48:08;;;;;;;;;;;;;;;18.12;49.80;101487.44;5024360;28;96709;-79
2021/09/19 04:50:35;;;;;;;;;;;;;;;18.02;49.99;101481.75;5013640;28;96897;-80
2021/09/19 04:53:02;;;;;;;;;;;;;;;17.91;50.21;101474.34;5014704;28;97763;-79
2021/09/19 04:55:28;;;;;;;;;;;;;;;18.12;49.76;101477.63;5016492;28;98871;-79
2021/09/19 04:57:54;;;;;;;;;;;;;;;18.23;49.43;101479.72;5017797;28;96838;-79
2021/09/19 05:00:21;;;;;;;;;;;;;;;17.83;49.71;101479.22;5017028;28;98487;-79
2021/09/19 05:02:47;;;;;;;;;;;;;;;17.87;49.48;101483.44;5017274;28;98824;-78
2021/09/19 05:05:13;;;;;;;;;;;;;;;18.03;49.42;101478.16;5016738;28;98856;-78
2021/09/19 05:07:41;;;;;;;;;;;;;;;17.96;50.23;101475.88;5017646;28;96619;-80
2021/09/19 05:10:08;;;;;;;;;;;;;;;18.08;49.22;101485.91;5017377;28;96903;-80
2021/09/19 05:12:34;;;;;;;;;;;;;;;18.11;49.56;101477.72;5017274;28;99207;-80
2021/09/19 05:15:01;;;;;;;;;;;;;;;18.21;49.05;101476.25;5016272;28;99208;-78
2021/09/19 05:17:27;;;;;;;;;;;;;;;18.07;49.73;101478.81;5017531;28;96771;-79
2021/09/19 05:19:53;;;;;;;;;;;;;;;17.95;49.18;101476.81;5017442;28;96925;-78
2021/09/19 05:22:20;;;;;;;;;;;;;;;17.88;49.48;101478.97;5016745;28;99248;-79
2021/09/19 05:24:47;;;;;;;;;;;;;;;18.22;49.68;101478.84;5017921;28;99178;-78
2021/09/19 05:27:14;;;;;;;;;;;;;;;18.05;49.15;101475.41;5017232;28;96650;-78
2021/09/19 05:29:40;;;;;;;;;;;;;;;17.66;50.30;101478.38;5016763;28;96816;-78
2021/09/19 05:32:06;;;;;;;;;;;;;;;17.87;50.31;101478.09;5016318;28;99335;-79
2021/09/19 05:34:33;;;;;;;;;;;;;;;18.30;49.15;101470.41;5016215;28;99128;-79
2021/09/19 05:36:59;;;;;;;;;;;;;;;18.45;49.20;101469.50;5016737;28;97108;-79
2021/09/19 05:39:26;;;;;;;;;;;;;;;18.26;49.66;101469.69;5016442;28;96816;-79
2021/09/19 05:41:53;;;;;;;;;;;;;;;17.74;50.53;101469.03;5016903;28;99603;-80
2021/09/19 05:44:20;;;;;;;;;;;;;;;18.28;49.77;101467.81;5016027;28;99081;-79
2021/09/19 05:46:46;;;;;;;;;;;;;;;18.18;49.20;101465.75;5022465;28;96771;-79
2021/09/19 05:49:13;;;;;;;;;;;;;;;18.60;48.84;101474.03;5035278;28;96806;-79
2021/09/19 05:51:39;;;;;;;;;;;;;;;18.12;49.42;101476.75;5009883;28;98940;-79
2021/09/19 05:54:05;;;;;;;;;;;;;;;18.13;50.13;101481.16;5007150;28;99122;-79
2021/09/19 05:56:31;;;;;;;;;;;;;;;18.25;49.37;101480.47;5025229;28;96859;-79
2021/09/19 05:58:59;;;;;;;;;;;;;;;18.31;49.70;101480.16;5017808;28;96806;-78
2021/09/19 06:01:30;;;;;;;;;;;;;;;17.78;50.42;101485.78;5021743;28;97818;-78
2021/09/19 06:03:57;;;;;;;;;;;;;;;18.26;50.36;101485.75;5030579;28;98625;-78
2021/09/19 06:09:05;;;;;;;;;;;;;;;18.15;49.41;101487.31;5017245;28;96967;-77
2021/09/19 06:11:31;;;;;;;;;;;;;;;18.28;48.68;101481.19;5017356;28;99228;-79
2021/09/19 06:13:58;;;;;;;;;;;;;;;17.50;50.52;101481.00;5016685;28;98867;-79
2021/09/19 06:16:25;;;;;;;;;;;;;;;18.00;49.35;101474.75;5016845;28;96892;-79
2021/09/19 06:18:52;;;;;;;;;;;;;;;18.53;48.22;101477.13;5017438;28;96767;-79
2021/09/19 06:21:18;;;;;;;;;;;;;;;18.72;47.58;101477.81;5014972;28;102013;-78
2021/09/19 06:23:44;;;;;;;;;;;;;;;18.76;47.97;101476.72;5016846;28;99019;-79
2021/09/19 06:26:11;;;;;;;;;;;;;;;18.57;48.64;101474.22;5016233;28;96717;-79
2021/09/19 06:28:37;;;;;;;;;;;;;;;18.69;48.28;101473.53;5016442;28;97263;-79
2021/09/19 06:31:03;;;;;;;;;;;;;;;18.37;49.10;101465.56;5017578;28;99198;-79
2021/09/19 06:33:32;;;;;;;;;;;;;;;18.02;49.83;101479.09;5017450;28;99188;-80
2021/09/19 06:36:01;;;;;;;;;;;;;;;17.93;49.93;101468.88;5017077;28;97066;-79
2021/09/19 06:38:27;;;;;;;;;;;;;;;18.07;49.34;101468.13;5018523;28;96789;-79
2021/09/19 06:40:53;;;;;;;;;;;;;;;18.35;48.87;101470.13;5016931;28;98918;-79
2021/09/19 06:43:20;;;;;;;;;;;;;;;18.47;48.42;101480.16;5018152;28;100195;-80
2021/09/19 06:45:46;;;;;;;;;;;;;;;18.60;48.72;101482.06;5016396;28;96761;-79
2021/09/19 06:48:12;;;;;;;;;;;;;;;17.98;49.19;101477.53;5037835;28;96755;-79
2021/09/19 06:50:40;;;;;;;;;;;;;;;18.04;49.46;101487.03;5025163;27;99032;-79
2021/09/19 06:53:06;;;;;;;;;;;;;;;18.69;47.81;101483.38;5016962;28;99211;-79
2021/09/19 06:55:33;;;;;;;;;;;;;;;18.79;47.71;101487.22;5017050;28;96943;-78
2021/09/19 06:58:00;;;;;;;;;;;;;;;18.20;49.00;101483.41;5018397;28;96995;-78
2021/09/19 07:00:26;;;;;;;;;;;;;;;18.23;49.60;101485.94;5016399;28;99214;-77
2021/09/19 07:02:52;;;;;;;;;;;;;;;18.53;48.87;101483.34;5016537;28;98140;-79
2021/09/19 07:05:19;;;;;;;;;;;;;;;18.17;49.66;101485.41;5015823;28;97249;-79
2021/09/19 07:07:47;;;;;;;;;;;;;;;18.57;48.43;101490.28;5017910;28;96905;-80
2021/09/19 07:10:14;;;;;;;;;;;;;;;18.69;48.07;101483.38;5016086;28;99250;-80
2021/09/19 07:12:40;;;;;;;;;;;;;;;18.71;48.17;101484.13;5016209;28;98877;-79
2021/09/19 07:15:07;;;;;;;;;;;;;;;19.10;46.31;101486.28;5015383;28;97190;-79
2021/09/19 07:17:33;;;;;;;;;;;;;;;19.22;46.34;101482.91;5016638;28;97857;-79
2021/09/19 07:20:00;;;;;;;;;;;;;;;18.78;46.81;101485.50;5028249;28;98160;-79
2021/09/19 07:22:27;;;;;;;;;;;;;;;18.26;48.52;101490.22;5030167;28;101146;-78
2021/09/19 07:24:58;;;;;;;;;;;;;;;18.41;48.00;101494.75;5022575;28;96538;-79
2021/09/19 07:27:24;;;;;;;;;;;;;;;18.83;47.28;101486.13;5023317;28;96782;-79
2021/09/19 07:29:51;;;;;;;;;;;;;;;18.60;47.27;101489.22;5022974;28;100745;-78
2021/09/19 07:32:19;;;;;;;;;;;;;;;19.09;46.11;101489.94;5016685;28;96974;-80
2021/09/19 07:34:46;;;;;;;;;;;;;;;18.84;46.71;101500.38;5012376;28;96752;-79
2021/09/19 07:37:13;;;;;;;;;;;;;;;18.81;46.58;101493.38;5015973;28;96882;-80
2021/09/19 07:39:40;;;;;;;;;;;;;;;18.21;48.04;101498.53;5015810;28;101328;-79
2021/09/19 07:42:08;;;;;;;;;;;;;;;18.26;48.40;101495.59;5027455;28;98009;-81
2021/09/19 07:44:35;;;;;;;;;;;;;;;18.74;46.99;101494.66;5016201;28;97399;-79
2021/09/19 07:47:03;;;;;;;;;;;;;;;18.92;46.72;101495.41;5018243;28;98756;-79
2021/09/19 07:49:29;;;;;;;;;;;;;;;18.48;47.25;101489.91;5012706;28;99195;-78
2021/09/19 07:51:56;;;;;;;;;;;;;;;17.99;48.06;101497.97;5015577;28;99231;-79
2021/09/19 07:54:23;;;;;;;;;;;;;;;18.48;47.00;101490.75;5020521;28;96676;-80
2021/09/19 07:56:49;;;;;;;;;;;;;;;18.60;47.09;101487.41;5020317;28;96826;-80
2021/09/19 07:59:17;;;;;;;;;;;;;;;19.28;46.08;101487.88;5017791;28;101490;-79
2021/09/19 08:01:44;;;;;;;;;;;;;;;19.46;44.93;101485.94;5024851;28;98276;-82
2021/09/19 08:04:11;;;;;;;;;;;;;;;19.30;44.79;101483.28;5014438;28;97779;-78
2021/09/19 08:06:37;;;;;;;;;;;;;;;19.85;43.74;101475.44;5015249;28;96975;-80
2021/09/19 08:09:04;;;;;;;;;;;;;;;20.18;43.15;101480.50;5023976;28;97600;-78
2021/09/19 08:11:31;;;;;;;;;;;;;;;20.08;42.71;101474.00;5021200;28;98060;-79
2021/09/19 08:14:05;;;;;;;;;;;;;;;20.01;42.07;101480.72;5022084;28;98697;-81
2021/09/19 08:16:33;;;;;;;;;;;;;;;20.54;41.21;101487.16;5019533;28;97420;-78
2021/09/19 08:18:59;;;;;;;;;;;;;;;20.64;41.04;101485.59;5016172;28;98770;-79
2021/09/19 08:21:26;;;;;;;;;;;;;;;19.97;42.11;101489.03;5014459;28;101752;-78
2021/09/19 08:23:52;;;;;;;;;;;;;;;19.01;43.80;101490.38;5011049;28;96786;-82
2021/09/19 08:26:18;;;;;;;;;;;;;;;19.07;42.85;101487.34;5021845;28;96794;-83
2021/09/19 08:28:44;;;;;;;;;;;;;;;18.47;44.53;101493.53;5021108;28;98243;-82
2021/09/19 08:31:11;;;;;;;;;;;;;;;19.32;42.35;101494.78;5011821;28;98082;-81
2021/09/19 08:33:38;;;;;;;;;;;;;;;20.09;41.47;101501.66;5007792;28;96923;-81
2021/09/19 08:36:05;;;;;;;;;;;;;;;19.95;41.27;101499.88;5013498;28;97210;-81
2021/09/19 08:38:32;;;;;;;;;;;;;;;19.31;43.00;101503.75;5015131;28;98208;-81
2021/09/19 08:40:58;;;;;;;;;;;;;;;19.29;43.49;101497.66;5015455;28;98050;-80
2021/09/19 08:43:24;;;;;;;;;;;;;;;19.27;43.61;101501.38;5015716;28;97068;-81
2021/09/19 08:45:51;;;;;;;;;;;;;;;20.22;41.95;101508.84;5016228;28;96890;-81
2021/09/19 08:48:18;;;;;;;;;;;;;;;20.27;42.24;101504.06;5014033;28;99064;-80
2021/09/19 08:50:50;;;;;;;;;;;;;;;19.66;43.46;101508.84;5013976;28;98607;-80
2021/09/19 08:53:16;;;;;;;;;;;;;;;19.30;44.80;101518.09;5014215;28;96828;-80
2021/09/19 08:55:43;;;;;;;;;;;;;;;20.28;42.36;101513.81;5014093;28;96876;-80
2021/09/19 08:58:09;;;;;;;;;;;;;;;20.48;42.75;101514.41;5014397;28;98171;-81
2021/09/19 09:00:40;;;;;;;;;;;;;;;20.15;42.79;101518.22;5013925;28;101291;-81
2021/09/19 09:03:10;;;;;;;;;;;;;;;19.71;43.21;101512.09;5012922;28;96872;-80
2021/09/19 09:05:37;;;;;;;;;;;;;;;19.36;43.95;101519.59;5012855;28;96672;-81
2021/09/19 09:08:06;;;;;;;;;;;;;;;20.40;40.63;101517.59;5001279;28;98363;-81
2021/09/19 09:10:33;;;;;;;;;;;;;;;19.89;40.42;101516.31;5016947;28;99244;-81
2021/09/19 09:13:02;;;;;;;;;;;;;;;20.75;37.33;101509.91;5013165;28;96804;-80
2021/09/19 09:15:34;;;;;;;;;;;;;;;21.31;36.38;101519.59;5015914;28;96830;-80
2021/09/19 09:18:04;;;;;;;;;;;;;;;21.81;36.18;101513.38;5012696;28;100080;-80
2021/09/19 09:20:45;;;;;;;;;;;;;;;21.97;35.75;101509.66;5015492;28;99153;-81
2021/09/19 09:23:22;;;;;;;;;;;;;;;21.97;34.05;101515.91;5015412;28;96809;-81
2021/09/19 09:26:07;;;;;;;;;;;;;;;20.88;36.72;101521.56;5018247;28;96730;-82
2021/09/19 09:28:45;;;;;;;;;;;;;;;20.96;36.27;101518.38;5012662;28;99091;-80
2021/09/19 09:31:12;;;;;;;;;;;;;;;21.78;34.09;101510.94;5010757;28;100951;-81
2021/09/19 09:33:39;;;;;;;;;;;;;;;21.85;33.80;101511.34;5002676;28;96904;-81
2021/09/19 09:36:06;;;;;;;;;;;;;;;20.79;35.10;101508.75;4997028;28;96814;-81
2021/09/19 09:38:34;;;;;;;;;;;;;;;20.46;35.59;101508.28;4986666;28;98119;-80
2021/09/19 09:41:00;;;;;;;;;;;;;;;20.67;35.65;101504.19;4994305;28;100900;-80
2021/09/19 09:43:27;;;;;;;;;;;;;;;20.63;35.33;101502.66;4995219;28;99494;-80
2021/09/19 09:45:53;;;;;;;;;;;;;;;21.73;33.78;101496.91;4990018;28;97035;-82
2021/09/19 09:48:24;;;;;;;;;;;;;;;21.37;33.56;101494.97;5018107;28;97713;-81
2021/09/19 09:50:52;;;;;;;;;;;;;;;21.37;33.92;101499.50;5003560;28;96507;-80
2021/09/19 09:53:21;;;;;;;;;;;;;;;21.26;34.68;101492.16;5019384;28;96595;-80
2021/09/19 09:55:49;;;;;;;;;;;;;;;21.53;33.85;101491.25;5013586;28;96037;-80
2021/09/19 09:58:18;;;;;;;;;;;;;;;21.47;33.79;101490.66;5009936;28;96902;-80
2021/09/19 10:00:45;;;;;;;;;;;;;;;21.98;33.78;101489.84;5011645;28;99655;-80
2021/09/19 10:03:11;;;;;;;;;;;;;;;21.77;32.92;101489.50;5013158;28;96686;-81
2021/09/19 10:05:38;;;;;;;;;;;;;;;21.79;33.06;101484.88;5013174;28;96022;-81
2021/09/19 10:08:05;;;;;;;;;;;;;;;22.17;32.01;101483.03;5011695;28;98768;-81
2021/09/19 10:10:36;;;;;;;;;;;;;;;21.66;32.80;101482.19;5006302;28;99172;-80
2021/09/19 10:13:04;;;;;;;;;;;;;;;21.37;31.50;101489.59;5017653;28;98534;-78
2021/09/19 10:15:30;;;;;;;;;;;;;;;21.50;31.72;101478.84;5011500;28;96139;-79
2021/09/19 10:17:57;;;;;;;;;;;;;;;21.12;32.66;101488.66;5009889;28;96792;-80
2021/09/19 10:20:26;;;;;;;;;;;;;;;21.93;30.99;101483.88;5015864;28;96409;-80
2021/09/19 10:23:05;;;;;;;;;;;;;;;21.67;31.38;101486.59;5008113;28;100514;-80
2021/09/19 10:25:49;;;;;;;;;;;;;;;21.74;31.66;101479.81;4989374;28;96847;-80
2021/09/19 10:28:22;;;;;;;;;;;;;;;20.74;33.86;101483.19;4995625;28;97169;-80
2021/09/19 10:31:03;;;;;;;;;;;;;;;22.07;32.01;101478.41;5003115;28;99343;-81
2021/09/19 10:33:36;;;;;;;;;;;;;;;21.82;33.04;101481.97;4998382;28;96702;-79
2021/09/19 10:36:02;;;;;;;;;;;;;;;21.37;32.06;101488.72;5018534;28;101308;-79
2021/09/19 10:38:36;;;;;;;;;;;;;;;21.91;30.97;101478.63;5022770;28;100598;-81
2021/09/19 10:41:13;;;;;;;;;;;;;;;21.86;30.76;101483.47;5013738;28;99681;-80
2021/09/19 10:43:51;;;;;;;;;;;;;;;21.58;31.45;101483.69;5008492;28;97161;-80
2021/09/19 10:46:36;;;;;;;;;;;;;;;22.10;31.17;101486.28;5015709;28;96782;-80
2021/09/19 10:49:09;;;;;;;;;;;;;;;22.07;32.39;101483.78;5011507;28;98480;-80
2021/09/19 10:51:36;;;;;;;;;;;;;;;22.82;31.41;101487.25;5011598;28;100520;-80
2021/09/19 10:54:02;;;;;;;;;;;;;;;22.78;30.68;101481.22;5017933;28;96704;-79
2021/09/19 10:56:32;;;;;;;;;;;;;;;22.12;30.92;101479.78;5014608;28;96885;-80
2021/09/19 10:58:59;;;;;;;;;;;;;;;22.90;31.83;101479.47;5019095;28;101459;-81
2021/09/19 11:01:26;;;;;;;;;;;;;;;21.97;30.71;101467.47;5020284;28;101149;-80
2021/09/19 11:04:08;;;;;;;;;;;;;;;21.93;30.56;101475.81;5015309;28;96780;-80
2021/09/19 11:06:35;;;;;;;;;;;;;;;21.83;31.57;101468.41;5014108;28;96841;-79
2021/09/19 11:09:19;;;;;;;;;;;;;;;21.62;31.60;101469.06;5015500;28;97358;-79
2021/09/19 11:12:06;;;;;;;;;;;;;;;21.05;32.59;101472.09;5010168;28;98131;-81
2021/09/19 11:14:55;;;;;;;;;;;;;;;20.26;34.17;101470.13;5011451;28;96759;-81
2021/09/19 11:17:22;;;;;;;;;;;;;;;21.39;32.40;101473.38;5017258;28;97781;-80
2021/09/19 11:20:13;;;;;;;;;;;;;;;21.33;33.39;101471.94;5018446;28;101623;-81
2021/09/19 11:22:40;;;;;;;;;;;;;;;20.54;33.91;101471.94;5015122;28;98329;-80
2021/09/19 11:25:06;;;;;;;;;;;;;;;20.37;34.61;101476.66;5019080;28;96739;-79
2021/09/19 11:27:33;;;;;;;;;;;;;;;20.62;33.98;101480.31;5018883;28;96857;-81
2021/09/19 11:30:01;;;;;;;;;;;;;;;20.83;35.69;101479.84;5019817;28;99086;-81
2021/09/19 11:32:30;;;;;;;;;;;;;;;21.09;33.17;101479.81;5017076;28;100223;-81
2021/09/19 11:34:57;;;;;;;;;;;;;;;21.15;33.59;101478.53;5018735;28;97117;-79
2021/09/19 11:37:25;;;;;;;;;;;;;;;20.73;34.01;101479.63;5012049;28;97500;-81
2021/09/19 11:39:52;;;;;;;;;;;;;;;20.85;34.44;101477.94;5017515;28;97821;-80
2021/09/19 11:42:18;;;;;;;;;;;;;;;20.35;34.79;101475.91;5017368;28;99133;-80
2021/09/19 11:44:48;;;;;;;;;;;;;;;20.49;35.01;101474.03;5010222;28;97960;-81
2021/09/19 11:47:17;;;;;;;;;;;;;;;20.36;35.57;101469.56;5014496;28;96729;-81
2021/09/19 11:49:49;;;;;;;;;;;;;;;20.82;34.81;101475.44;5017388;28;119043;-81
2021/09/19 11:52:16;;;;;;;;;;;;;;;20.29;35.91;101474.41;5019806;28;101764;-80
2021/09/19 11:54:43;;;;;;;;;;;;;;;20.15;36.21;101475.31;5021377;28;96719;-80
2021/09/19 11:57:10;;;;;;;;;;;;;;;20.30;36.03;101474.31;5025062;28;96744;-81
2021/09/19 11:59:40;;;;;;;;;;;;;;;20.58;35.62;101477.94;5028014;28;96791;-79
2021/09/19 12:02:07;;;;;;;;;;;;;;;20.49;36.46;101471.34;5026509;28;100734;-80
2021/09/19 12:04:36;;;;;;;;;;;;;;;19.82;37.33;101478.28;5017889;28;97701;-81
2021/09/19 12:07:06;;;;;;;;;;;;;;;20.57;36.48;101476.22;5011680;28;96533;-81
2021/09/19 12:09:33;;;;;;;;;;;;;;;19.93;36.86;101479.47;5024824;28;101891;-80
2021/09/19 12:11:59;;;;;;;;;;;;;;;20.45;36.48;101474.34;5027809;28;101950;-80
2021/09/19 12:14:26;;;;;;;;;;;;;;;21.18;35.00;101477.53;5013385;28;96887;-80
2021/09/19 12:17:01;;;;;;;;;;;;;;;21.21;34.48;101477.28;5008769;28;96875;-79
2021/09/19 12:19:28;;;;;;;;;;;;;;;21.39;34.89;101470.69;5014432;28;99204;-80
2021/09/19 12:22:00;;;;;;;;;;;;;;;21.60;33.98;101462.91;5017787;28;99469;-80
2021/09/19 12:24:27;;;;;;;;;;;;;;;21.42;34.17;101467.75;5023303;28;96626;-81
2021/09/19 12:27:08;;;;;;;;;;;;;;;21.28;34.36;101463.34;5011572;28;96894;-81
2021/09/19 12:29:35;;;;;;;;;;;;;;;21.70;33.84;101456.81;5017681;28;102386;-79
2021/09/19 12:32:02;;;;;;;;;;;;;;;21.39;34.15;101459.94;5019077;28;97727;-82
2021/09/19 12:34:29;;;;;;;;;;;;;;;22.15;32.95;101459.88;5020251;28;96813;-79
2021/09/19 12:36:56;;;;;;;;;;;;;;;22.53;32.82;101455.22;5022434;28;96839;-80
2021/09/19 12:39:28;;;;;;;;;;;;;;;22.19;33.55;101450.59;5021280;28;97822;-81
2021/09/19 12:41:58;;;;;;;;;;;;;;;21.02;35.02;101451.66;5019454;28;97372;-79